sensor_id;sensor_type;location;lat;lon;timestamp;P1;durP1;ratioP1;P2;durP2;ratioP2
82475;SDS011;72099;43.176;76.872;2024-02-28T00:01:19;10.27;;;4.75;;
82475;SDS011;72099;43.176;76.872;2024-02-28T00:04:20;11.50;;;4.60;;
82475;SDS011;72099;43.176;76.872;2024-02-28T00:07:21;8.50;;;4.43;;
82475;SDS011;72099;43.176;76.872;2024-02-28T00:10:22;9.18;;;4.50;;
82475;SDS011;72099;43.176;76.872;2024-02-28T00:13:22;11.98;;;4.82;;
82475;SDS011;72099;43.176;76.872;2024-02-28T00:16:24;8.98;;;4.85;;
82475;SDS011;72099;43.176;76.872;2024-02-28T00:19:25;8.98;;;5.28;;
82475;SDS011;72099;43.176;76.872;2024-02-28T00:22:26;4.60;;;2.75;;
82475;SDS011;72099;43.176;76.872;2024-02-28T00:25:27;18.60;;;7.40;;
82475;SDS011;72099;43.176;76.872;2024-02-28T00:28:27;8.88;;;4.90;;
82475;SDS011;72099;43.176;76.872;2024-02-28T00:31:28;13.25;;;6.40;;
82475;SDS011;72099;43.176;76.872;2024-02-28T00:34:29;7.28;;;4.25;;
82475;SDS011;72099;43.176;76.872;2024-02-28T00:37:30;16.05;;;6.10;;
82475;SDS011;72099;43.176;76.872;2024-02-28T00:40:31;6.70;;;3.28;;
82475;SDS011;72099;43.176;76.872;2024-02-28T00:43:32;5.18;;;3.55;;
82475;SDS011;72099;43.176;76.872;2024-02-28T00:46:33;6.93;;;3.60;;
82475;SDS011;72099;43.176;76.872;2024-02-28T00:49:34;7.97;;;3.05;;
82475;SDS011;72099;43.176;76.872;2024-02-28T00:52:35;7.57;;;4.03;;
82475;SDS011;72099;43.176;76.872;2024-02-28T00:55:36;11.52;;;3.55;;
82475;SDS011;72099;43.176;76.872;2024-02-28T00:58:37;7.75;;;4.80;;
82475;SDS011;72099;43.176;76.872;2024-02-28T01:01:39;11.05;;;3.00;;
82475;SDS011;72099;43.176;76.872;2024-02-28T01:04:40;16.17;;;4.63;;
82475;SDS011;72099;43.176;76.872;2024-02-28T01:07:41;4.78;;;2.50;;
82475;SDS011;72099;43.176;76.872;2024-02-28T01:10:43;5.95;;;3.30;;
82475;SDS011;72099;43.176;76.872;2024-02-28T01:13:44;8.82;;;3.38;;
82475;SDS011;72099;43.176;76.872;2024-02-28T01:16:45;8.88;;;4.25;;
82475;SDS011;72099;43.176;76.872;2024-02-28T01:19:46;4.97;;;3.35;;
82475;SDS011;72099;43.176;76.872;2024-02-28T01:22:47;9.88;;;3.63;;
82475;SDS011;72099;43.176;76.872;2024-02-28T01:25:48;4.00;;;2.15;;
82475;SDS011;72099;43.176;76.872;2024-02-28T01:28:49;10.20;;;4.45;;
82475;SDS011;72099;43.176;76.872;2024-02-28T01:35:15;6.68;;;3.90;;
82475;SDS011;72099;43.176;76.872;2024-02-28T01:38:16;12.75;;;5.72;;
82475;SDS011;72099;43.176;76.872;2024-02-28T01:41:17;4.32;;;2.53;;
82475;SDS011;72099;43.176;76.872;2024-02-28T01:44:18;16.17;;;5.97;;
82475;SDS011;72099;43.176;76.872;2024-02-28T01:47:19;18.63;;;5.80;;
82475;SDS011;72099;43.176;76.872;2024-02-28T01:50:20;7.70;;;3.80;;
82475;SDS011;72099;43.176;76.872;2024-02-28T01:53:21;10.20;;;3.03;;
82475;SDS011;72099;43.176;76.872;2024-02-28T01:56:22;14.23;;;4.47;;
82475;SDS011;72099;43.176;76.872;2024-02-28T01:59:27;6.88;;;3.65;;
82475;SDS011;72099;43.176;76.872;2024-02-28T02:02:30;10.48;;;5.25;;
82475;SDS011;72099;43.176;76.872;2024-02-28T02:05:31;9.30;;;4.07;;
82475;SDS011;72099;43.176;76.872;2024-02-28T02:08:32;11.43;;;5.60;;
82475;SDS011;72099;43.176;76.872;2024-02-28T02:11:33;17.95;;;6.55;;
82475;SDS011;72099;43.176;76.872;2024-02-28T02:14:35;11.15;;;6.68;;
82475;SDS011;72099;43.176;76.872;2024-02-28T02:17:36;10.50;;;4.97;;
82475;SDS011;72099;43.176;76.872;2024-02-28T02:20:38;13.55;;;5.50;;
82475;SDS011;72099;43.176;76.872;2024-02-28T02:23:46;8.20;;;4.70;;
82475;SDS011;72099;43.176;76.872;2024-02-28T02:26:47;13.40;;;5.97;;
82475;SDS011;72099;43.176;76.872;2024-02-28T02:29:51;7.55;;;4.68;;
82475;SDS011;72099;43.176;76.872;2024-02-28T02:36:15;14.88;;;3.95;;
82475;SDS011;72099;43.176;76.872;2024-02-28T02:39:16;12.18;;;4.93;;
82475;SDS011;72099;43.176;76.872;2024-02-28T02:42:17;16.88;;;6.60;;
82475;SDS011;72099;43.176;76.872;2024-02-28T02:45:18;14.18;;;6.15;;
82475;SDS011;72099;43.176;76.872;2024-02-28T02:48:19;11.98;;;6.28;;
82475;SDS011;72099;43.176;76.872;2024-02-28T02:51:20;18.33;;;6.32;;
82475;SDS011;72099;43.176;76.872;2024-02-28T02:54:20;10.95;;;5.05;;
82475;SDS011;72099;43.176;76.872;2024-02-28T02:57:21;13.25;;;5.78;;
82475;SDS011;72099;43.176;76.872;2024-02-28T03:00:22;14.57;;;5.38;;
82475;SDS011;72099;43.176;76.872;2024-02-28T03:03:23;19.15;;;7.07;;
82475;SDS011;72099;43.176;76.872;2024-02-28T03:06:24;19.85;;;6.47;;
82475;SDS011;72099;43.176;76.872;2024-02-28T03:09:25;17.48;;;7.70;;
82475;SDS011;72099;43.176;76.872;2024-02-28T03:12:26;16.15;;;6.45;;
82475;SDS011;72099;43.176;76.872;2024-02-28T03:15:26;15.60;;;5.63;;
82475;SDS011;72099;43.176;76.872;2024-02-28T03:18:27;13.25;;;6.88;;
82475;SDS011;72099;43.176;76.872;2024-02-28T03:21:28;19.95;;;7.57;;
82475;SDS011;72099;43.176;76.872;2024-02-28T03:24:29;19.45;;;7.63;;
82475;SDS011;72099;43.176;76.872;2024-02-28T03:27:30;19.45;;;8.88;;
82475;SDS011;72099;43.176;76.872;2024-02-28T03:30:31;19.35;;;9.52;;
82475;SDS011;72099;43.176;76.872;2024-02-28T03:33:32;21.08;;;8.73;;
82475;SDS011;72099;43.176;76.872;2024-02-28T03:36:34;19.30;;;9.75;;
82475;SDS011;72099;43.176;76.872;2024-02-28T03:39:35;13.90;;;8.60;;
82475;SDS011;72099;43.176;76.872;2024-02-28T03:42:36;37.30;;;12.57;;
82475;SDS011;72099;43.176;76.872;2024-02-28T03:45:37;34.05;;;13.50;;
82475;SDS011;72099;43.176;76.872;2024-02-28T03:48:41;38.85;;;16.73;;
82475;SDS011;72099;43.176;76.872;2024-02-28T03:51:42;34.65;;;15.30;;
82475;SDS011;72099;43.176;76.872;2024-02-28T03:54:43;46.00;;;20.83;;
82475;SDS011;72099;43.176;76.872;2024-02-28T03:57:48;57.22;;;26.00;;
82475;SDS011;72099;43.176;76.872;2024-02-28T04:00:51;60.92;;;24.67;;
82475;SDS011;72099;43.176;76.872;2024-02-28T04:03:52;56.50;;;25.75;;
82475;SDS011;72099;43.176;76.872;2024-02-28T04:06:53;60.95;;;28.80;;
82475;SDS011;72099;43.176;76.872;2024-02-28T04:09:54;57.70;;;25.73;;
82475;SDS011;72099;43.176;76.872;2024-02-28T04:12:55;59.28;;;28.45;;
82475;SDS011;72099;43.176;76.872;2024-02-28T04:15:56;59.88;;;27.58;;
82475;SDS011;72099;43.176;76.872;2024-02-28T04:18:57;55.47;;;25.52;;
82475;SDS011;72099;43.176;76.872;2024-02-28T04:21:58;60.65;;;28.25;;
82475;SDS011;72099;43.176;76.872;2024-02-28T04:24:58;65.85;;;30.90;;
82475;SDS011;72099;43.176;76.872;2024-02-28T04:27:59;64.43;;;26.75;;
82475;SDS011;72099;43.176;76.872;2024-02-28T04:31:00;54.47;;;26.17;;
82475;SDS011;72099;43.176;76.872;2024-02-28T04:34:01;63.20;;;26.90;;
82475;SDS011;72099;43.176;76.872;2024-02-28T04:37:02;55.65;;;27.55;;
82475;SDS011;72099;43.176;76.872;2024-02-28T04:40:03;53.40;;;27.65;;
82475;SDS011;72099;43.176;76.872;2024-02-28T04:43:05;66.25;;;30.20;;
82475;SDS011;72099;43.176;76.872;2024-02-28T04:46:05;62.90;;;30.75;;
82475;SDS011;72099;43.176;76.872;2024-02-28T04:49:06;65.68;;;28.48;;
82475;SDS011;72099;43.176;76.872;2024-02-28T04:55:32;76.03;;;32.85;;
82475;SDS011;72099;43.176;76.872;2024-02-28T04:58:33;72.85;;;33.05;;
82475;SDS011;72099;43.176;76.872;2024-02-28T05:01:35;72.78;;;34.17;;
82475;SDS011;72099;43.176;76.872;2024-02-28T05:04:39;80.82;;;38.47;;
82475;SDS011;72099;43.176;76.872;2024-02-28T05:07:40;75.90;;;38.38;;
82475;SDS011;72099;43.176;76.872;2024-02-28T05:10:40;89.53;;;43.47;;
82475;SDS011;72099;43.176;76.872;2024-02-28T05:13:41;81.07;;;39.88;;
82475;SDS011;72099;43.176;76.872;2024-02-28T05:16:43;85.95;;;42.20;;
82475;SDS011;72099;43.176;76.872;2024-02-28T05:19:43;80.35;;;38.13;;
82475;SDS011;72099;43.176;76.872;2024-02-28T05:22:44;86.93;;;45.40;;
82475;SDS011;72099;43.176;76.872;2024-02-28T05:25:46;88.55;;;45.05;;
82475;SDS011;72099;43.176;76.872;2024-02-28T05:28:47;91.90;;;44.92;;
82475;SDS011;72099;43.176;76.872;2024-02-28T05:31:47;93.88;;;49.80;;
82475;SDS011;72099;43.176;76.872;2024-02-28T05:37:53;103.68;;;50.75;;
82475;SDS011;72099;43.176;76.872;2024-02-28T05:40:55;101.10;;;50.28;;
82475;SDS011;72099;43.176;76.872;2024-02-28T05:43:55;103.38;;;52.00;;
82475;SDS011;72099;43.176;76.872;2024-02-28T05:46:56;95.78;;;50.78;;
82475;SDS011;72099;43.176;76.872;2024-02-28T05:49:57;95.72;;;50.13;;
82475;SDS011;72099;43.176;76.872;2024-02-28T05:52:58;91.13;;;48.92;;
82475;SDS011;72099;43.176;76.872;2024-02-28T05:55:59;98.55;;;49.88;;
82475;SDS011;72099;43.176;76.872;2024-02-28T05:59:00;108.10;;;57.88;;
82475;SDS011;72099;43.176;76.872;2024-02-28T06:02:01;108.63;;;53.40;;
82475;SDS011;72099;43.176;76.872;2024-02-28T06:05:01;106.65;;;55.67;;
82475;SDS011;72099;43.176;76.872;2024-02-28T06:08:03;101.45;;;56.83;;
82475;SDS011;72099;43.176;76.872;2024-02-28T06:11:04;106.03;;;54.97;;
82475;SDS011;72099;43.176;76.872;2024-02-28T06:14:07;101.07;;;59.22;;
82475;SDS011;72099;43.176;76.872;2024-02-28T06:17:09;103.63;;;61.38;;
82475;SDS011;72099;43.176;76.872;2024-02-28T06:20:10;102.88;;;57.13;;
82475;SDS011;72099;43.176;76.872;2024-02-28T06:23:11;107.80;;;65.30;;
82475;SDS011;72099;43.176;76.872;2024-02-28T06:26:12;98.53;;;60.20;;
82475;SDS011;72099;43.176;76.872;2024-02-28T06:29:16;94.38;;;56.63;;
82475;SDS011;72099;43.176;76.872;2024-02-28T06:32:17;102.82;;;64.07;;
82475;SDS011;72099;43.176;76.872;2024-02-28T06:35:18;102.55;;;63.33;;
82475;SDS011;72099;43.176;76.872;2024-02-28T06:38:19;131.70;;;81.03;;
82475;SDS011;72099;43.176;76.872;2024-02-28T06:41:20;105.38;;;63.35;;
82475;SDS011;72099;43.176;76.872;2024-02-28T06:44:21;111.90;;;66.22;;
82475;SDS011;72099;43.176;76.872;2024-02-28T06:47:22;108.18;;;66.47;;
82475;SDS011;72099;43.176;76.872;2024-02-28T06:50:22;127.50;;;71.22;;
82475;SDS011;72099;43.176;76.872;2024-02-28T06:53:23;112.72;;;66.95;;
82475;SDS011;72099;43.176;76.872;2024-02-28T06:56:24;117.10;;;69.07;;
82475;SDS011;72099;43.176;76.872;2024-02-28T06:59:25;107.95;;;62.17;;
82475;SDS011;72099;43.176;76.872;2024-02-28T07:02:26;117.15;;;64.80;;
82475;SDS011;72099;43.176;76.872;2024-02-28T07:05:26;122.57;;;70.15;;
82475;SDS011;72099;43.176;76.872;2024-02-28T07:08:27;119.80;;;67.78;;
82475;SDS011;72099;43.176;76.872;2024-02-28T07:11:28;116.07;;;65.32;;
82475;SDS011;72099;43.176;76.872;2024-02-28T07:14:29;104.15;;;55.92;;
82475;SDS011;72099;43.176;76.872;2024-02-28T07:17:31;113.25;;;57.85;;
82475;SDS011;72099;43.176;76.872;2024-02-28T07:20:32;122.20;;;70.97;;
82475;SDS011;72099;43.176;76.872;2024-02-28T07:23:32;111.90;;;56.83;;
82475;SDS011;72099;43.176;76.872;2024-02-28T07:26:33;109.60;;;54.83;;
82475;SDS011;72099;43.176;76.872;2024-02-28T07:29:36;112.63;;;56.60;;
82475;SDS011;72099;43.176;76.872;2024-02-28T07:36:03;96.00;;;50.42;;
82475;SDS011;72099;43.176;76.872;2024-02-28T07:39:04;106.18;;;52.75;;
82475;SDS011;72099;43.176;76.872;2024-02-28T07:45:06;92.32;;;45.00;;
82475;SDS011;72099;43.176;76.872;2024-02-28T07:48:08;88.63;;;41.05;;
82475;SDS011;72099;43.176;76.872;2024-02-28T07:51:09;100.15;;;44.90;;
82475;SDS011;72099;43.176;76.872;2024-02-28T07:54:11;92.30;;;45.53;;
82475;SDS011;72099;43.176;76.872;2024-02-28T07:57:13;96.13;;;45.63;;
82475;SDS011;72099;43.176;76.872;2024-02-28T08:00:15;85.32;;;40.88;;
82475;SDS011;72099;43.176;76.872;2024-02-28T08:03:19;88.95;;;42.30;;
82475;SDS011;72099;43.176;76.872;2024-02-28T08:06:20;98.72;;;44.78;;
82475;SDS011;72099;43.176;76.872;2024-02-28T08:09:21;89.93;;;42.75;;
82475;SDS011;72099;43.176;76.872;2024-02-28T08:12:22;97.90;;;47.10;;
82475;SDS011;72099;43.176;76.872;2024-02-28T08:15:23;98.65;;;45.60;;
82475;SDS011;72099;43.176;76.872;2024-02-28T08:18:24;97.22;;;46.55;;
82475;SDS011;72099;43.176;76.872;2024-02-28T08:21:26;92.88;;;44.45;;
82475;SDS011;72099;43.176;76.872;2024-02-28T08:24:28;98.45;;;44.90;;
82475;SDS011;72099;43.176;76.872;2024-02-28T08:27:28;97.43;;;49.83;;
82475;SDS011;72099;43.176;76.872;2024-02-28T08:30:29;99.90;;;46.15;;
82475;SDS011;72099;43.176;76.872;2024-02-28T08:33:31;105.75;;;49.97;;
82475;SDS011;72099;43.176;76.872;2024-02-28T08:36:32;95.72;;;45.17;;
82475;SDS011;72099;43.176;76.872;2024-02-28T08:39:33;100.75;;;46.22;;
82475;SDS011;72099;43.176;76.872;2024-02-28T08:46:03;98.72;;;45.15;;
82475;SDS011;72099;43.176;76.872;2024-02-28T08:49:04;99.45;;;46.42;;
82475;SDS011;72099;43.176;76.872;2024-02-28T08:52:05;100.68;;;46.28;;
82475;SDS011;72099;43.176;76.872;2024-02-28T08:55:06;89.93;;;46.47;;
82475;SDS011;72099;43.176;76.872;2024-02-28T08:58:07;94.65;;;43.17;;
82475;SDS011;72099;43.176;76.872;2024-02-28T09:01:08;93.22;;;44.55;;
82475;SDS011;72099;43.176;76.872;2024-02-28T09:04:09;90.13;;;45.25;;
82475;SDS011;72099;43.176;76.872;2024-02-28T09:07:10;85.65;;;43.40;;
82475;SDS011;72099;43.176;76.872;2024-02-28T09:10:12;91.20;;;44.50;;
82475;SDS011;72099;43.176;76.872;2024-02-28T09:13:12;94.78;;;43.10;;
82475;SDS011;72099;43.176;76.872;2024-02-28T09:16:13;87.20;;;41.55;;
82475;SDS011;72099;43.176;76.872;2024-02-28T09:19:14;95.68;;;41.50;;
82475;SDS011;72099;43.176;76.872;2024-02-28T09:22:22;89.95;;;44.85;;
82475;SDS011;72099;43.176;76.872;2024-02-28T09:25:24;101.75;;;43.42;;
82475;SDS011;72099;43.176;76.872;2024-02-28T09:28:24;90.03;;;40.78;;
82475;SDS011;72099;43.176;76.872;2024-02-28T09:31:25;87.03;;;40.30;;
82475;SDS011;72099;43.176;76.872;2024-02-28T09:34:26;86.15;;;39.53;;
82475;SDS011;72099;43.176;76.872;2024-02-28T09:37:27;86.20;;;41.38;;
82475;SDS011;72099;43.176;76.872;2024-02-28T09:40:30;79.07;;;39.65;;
82475;SDS011;72099;43.176;76.872;2024-02-28T09:43:31;95.60;;;42.17;;
82475;SDS011;72099;43.176;76.872;2024-02-28T09:46:34;89.65;;;42.28;;
82475;SDS011;72099;43.176;76.872;2024-02-28T09:49:35;80.75;;;39.85;;
82475;SDS011;72099;43.176;76.872;2024-02-28T09:52:39;91.05;;;42.17;;
82475;SDS011;72099;43.176;76.872;2024-02-28T09:55:40;87.32;;;41.90;;
82475;SDS011;72099;43.176;76.872;2024-02-28T09:58:41;85.65;;;38.25;;
82475;SDS011;72099;43.176;76.872;2024-02-28T10:01:43;86.25;;;39.75;;
82475;SDS011;72099;43.176;76.872;2024-02-28T10:04:47;86.28;;;41.85;;
82475;SDS011;72099;43.176;76.872;2024-02-28T10:07:49;91.70;;;40.00;;
82475;SDS011;72099;43.176;76.872;2024-02-28T10:10:50;89.05;;;40.65;;
82475;SDS011;72099;43.176;76.872;2024-02-28T10:13:56;79.90;;;37.88;;
82475;SDS011;72099;43.176;76.872;2024-02-28T10:16:56;87.75;;;39.70;;
82475;SDS011;72099;43.176;76.872;2024-02-28T10:19:58;80.03;;;36.45;;
82475;SDS011;72099;43.176;76.872;2024-02-28T10:22:59;78.72;;;34.58;;
82475;SDS011;72099;43.176;76.872;2024-02-28T10:26:05;89.10;;;38.33;;
82475;SDS011;72099;43.176;76.872;2024-02-28T10:29:09;83.40;;;38.88;;
82475;SDS011;72099;43.176;76.872;2024-02-28T10:35:33;86.80;;;38.38;;
82475;SDS011;72099;43.176;76.872;2024-02-28T10:38:34;88.78;;;35.70;;
82475;SDS011;72099;43.176;76.872;2024-02-28T10:41:38;93.35;;;40.67;;
82475;SDS011;72099;43.176;76.872;2024-02-28T10:44:39;85.70;;;36.60;;
82475;SDS011;72099;43.176;76.872;2024-02-28T10:47:43;77.45;;;33.42;;
82475;SDS011;72099;43.176;76.872;2024-02-28T10:50:44;75.85;;;33.33;;
82475;SDS011;72099;43.176;76.872;2024-02-28T10:53:47;83.70;;;38.17;;
82475;SDS011;72099;43.176;76.872;2024-02-28T10:56:51;87.85;;;37.83;;
82475;SDS011;72099;43.176;76.872;2024-02-28T10:59:53;91.05;;;39.13;;
82475;SDS011;72099;43.176;76.872;2024-02-28T11:02:56;91.57;;;40.55;;
82475;SDS011;72099;43.176;76.872;2024-02-28T11:05:58;80.55;;;36.80;;
82475;SDS011;72099;43.176;76.872;2024-02-28T11:09:02;83.85;;;37.70;;
82475;SDS011;72099;43.176;76.872;2024-02-28T11:12:06;97.30;;;39.72;;
82475;SDS011;72099;43.176;76.872;2024-02-28T11:15:24;86.60;;;36.70;;
82475;SDS011;72099;43.176;76.872;2024-02-28T11:18:27;82.70;;;36.67;;
82475;SDS011;72099;43.176;76.872;2024-02-28T11:21:28;83.60;;;37.30;;
82475;SDS011;72099;43.176;76.872;2024-02-28T11:24:30;82.18;;;33.65;;
82475;SDS011;72099;43.176;76.872;2024-02-28T11:27:32;90.82;;;38.08;;
82475;SDS011;72099;43.176;76.872;2024-02-28T11:30:33;87.00;;;38.90;;
82475;SDS011;72099;43.176;76.872;2024-02-28T11:33:34;86.28;;;36.20;;
82475;SDS011;72099;43.176;76.872;2024-02-28T11:36:36;88.90;;;37.95;;
82475;SDS011;72099;43.176;76.872;2024-02-28T11:39:38;85.22;;;35.35;;
82475;SDS011;72099;43.176;76.872;2024-02-28T11:42:39;90.43;;;37.60;;
82475;SDS011;72099;43.176;76.872;2024-02-28T11:45:39;91.47;;;38.58;;
82475;SDS011;72099;43.176;76.872;2024-02-28T11:48:41;84.75;;;35.25;;
82475;SDS011;72099;43.176;76.872;2024-02-28T11:51:42;88.80;;;37.40;;
82475;SDS011;72099;43.176;76.872;2024-02-28T11:54:44;83.55;;;37.58;;
82475;SDS011;72099;43.176;76.872;2024-02-28T11:57:46;86.90;;;36.40;;
82475;SDS011;72099;43.176;76.872;2024-02-28T12:00:50;92.68;;;37.13;;
82475;SDS011;72099;43.176;76.872;2024-02-28T12:03:52;80.03;;;35.10;;
82475;SDS011;72099;43.176;76.872;2024-02-28T12:06:52;82.65;;;35.55;;
82475;SDS011;72099;43.176;76.872;2024-02-28T12:09:54;89.22;;;35.38;;
82475;SDS011;72099;43.176;76.872;2024-02-28T12:12:58;83.10;;;32.72;;
82475;SDS011;72099;43.176;76.872;2024-02-28T12:16:00;86.72;;;35.35;;
82475;SDS011;72099;43.176;76.872;2024-02-28T12:19:02;86.90;;;33.97;;
82475;SDS011;72099;43.176;76.872;2024-02-28T12:22:10;91.85;;;38.20;;
82475;SDS011;72099;43.176;76.872;2024-02-28T12:25:11;86.30;;;36.65;;
82475;SDS011;72099;43.176;76.872;2024-02-28T12:28:12;83.78;;;34.22;;
82475;SDS011;72099;43.176;76.872;2024-02-28T12:31:13;99.60;;;36.72;;
82475;SDS011;72099;43.176;76.872;2024-02-28T12:34:14;86.38;;;35.78;;
82475;SDS011;72099;43.176;76.872;2024-02-28T12:37:15;85.85;;;35.55;;
82475;SDS011;72099;43.176;76.872;2024-02-28T12:40:16;97.50;;;37.90;;
82475;SDS011;72099;43.176;76.872;2024-02-28T12:43:17;86.28;;;34.70;;
82475;SDS011;72099;43.176;76.872;2024-02-28T12:46:18;141.82;;;52.80;;
82475;SDS011;72099;43.176;76.872;2024-02-28T12:49:19;124.50;;;48.90;;
82475;SDS011;72099;43.176;76.872;2024-02-28T12:52:19;102.65;;;38.33;;
82475;SDS011;72099;43.176;76.872;2024-02-28T12:55:20;96.93;;;37.22;;
82475;SDS011;72099;43.176;76.872;2024-02-28T12:58:21;98.47;;;40.85;;
82475;SDS011;72099;43.176;76.872;2024-02-28T13:01:24;101.93;;;39.42;;
82475;SDS011;72099;43.176;76.872;2024-02-28T13:04:25;87.20;;;36.03;;
82475;SDS011;72099;43.176;76.872;2024-02-28T13:07:28;92.03;;;33.22;;
82475;SDS011;72099;43.176;76.872;2024-02-28T13:10:30;89.93;;;33.80;;
82475;SDS011;72099;43.176;76.872;2024-02-28T13:13:34;99.80;;;35.00;;
82475;SDS011;72099;43.176;76.872;2024-02-28T13:16:35;92.80;;;36.03;;
82475;SDS011;72099;43.176;76.872;2024-02-28T13:19:35;83.05;;;32.78;;
82475;SDS011;72099;43.176;76.872;2024-02-28T13:26:05;87.43;;;33.30;;
82475;SDS011;72099;43.176;76.872;2024-02-28T13:29:06;94.00;;;35.55;;
82475;SDS011;72099;43.176;76.872;2024-02-28T13:32:07;100.13;;;36.67;;
82475;SDS011;72099;43.176;76.872;2024-02-28T13:35:08;95.70;;;36.08;;
82475;SDS011;72099;43.176;76.872;2024-02-28T13:38:10;95.15;;;36.20;;
82475;SDS011;72099;43.176;76.872;2024-02-28T13:41:11;88.75;;;34.25;;
82475;SDS011;72099;43.176;76.872;2024-02-28T13:44:12;89.05;;;36.60;;
82475;SDS011;72099;43.176;76.872;2024-02-28T13:47:13;94.90;;;33.45;;
82475;SDS011;72099;43.176;76.872;2024-02-28T13:50:14;85.93;;;33.60;;
82475;SDS011;72099;43.176;76.872;2024-02-28T13:53:15;100.55;;;42.10;;
82475;SDS011;72099;43.176;76.872;2024-02-28T13:56:16;119.50;;;44.20;;
82475;SDS011;72099;43.176;76.872;2024-02-28T13:59:17;112.30;;;45.10;;
82475;SDS011;72099;43.176;76.872;2024-02-28T14:02:18;109.70;;;40.00;;
82475;SDS011;72099;43.176;76.872;2024-02-28T14:05:19;100.25;;;40.80;;
82475;SDS011;72099;43.176;76.872;2024-02-28T14:08:20;96.03;;;40.17;;
82475;SDS011;72099;43.176;76.872;2024-02-28T14:11:21;89.93;;;36.95;;
82475;SDS011;72099;43.176;76.872;2024-02-28T14:14:23;97.32;;;39.30;;
82475;SDS011;72099;43.176;76.872;2024-02-28T14:17:24;101.03;;;39.95;;
82475;SDS011;72099;43.176;76.872;2024-02-28T14:20:25;101.43;;;37.25;;
82475;SDS011;72099;43.176;76.872;2024-02-28T14:23:26;98.80;;;39.63;;
82475;SDS011;72099;43.176;76.872;2024-02-28T14:26:27;77.03;;;32.08;;
82475;SDS011;72099;43.176;76.872;2024-02-28T14:29:27;87.82;;;37.90;;
82475;SDS011;72099;43.176;76.872;2024-02-28T14:32:41;80.65;;;30.88;;
82475;SDS011;72099;43.176;76.872;2024-02-28T14:35:43;74.72;;;32.03;;
82475;SDS011;72099;43.176;76.872;2024-02-28T14:38:44;82.18;;;32.67;;
82475;SDS011;72099;43.176;76.872;2024-02-28T14:41:45;73.65;;;30.67;;
82475;SDS011;72099;43.176;76.872;2024-02-28T14:44:46;85.75;;;33.53;;
82475;SDS011;72099;43.176;76.872;2024-02-28T14:47:47;79.63;;;33.60;;
82475;SDS011;72099;43.176;76.872;2024-02-28T14:50:47;91.80;;;36.83;;
82475;SDS011;72099;43.176;76.872;2024-02-28T14:53:48;95.13;;;37.08;;
82475;SDS011;72099;43.176;76.872;2024-02-28T14:56:49;91.28;;;33.05;;
82475;SDS011;72099;43.176;76.872;2024-02-28T14:59:50;88.68;;;31.60;;
82475;SDS011;72099;43.176;76.872;2024-02-28T15:02:51;80.07;;;31.52;;
82475;SDS011;72099;43.176;76.872;2024-02-28T15:05:54;82.75;;;32.15;;
82475;SDS011;72099;43.176;76.872;2024-02-28T15:08:55;74.20;;;31.63;;
82475;SDS011;72099;43.176;76.872;2024-02-28T15:11:55;78.03;;;32.28;;
82475;SDS011;72099;43.176;76.872;2024-02-28T15:14:57;82.18;;;34.05;;
82475;SDS011;72099;43.176;76.872;2024-02-28T15:17:58;89.28;;;35.15;;
82475;SDS011;72099;43.176;76.872;2024-02-28T15:21:00;88.80;;;33.72;;
82475;SDS011;72099;43.176;76.872;2024-02-28T15:24:02;92.38;;;34.53;;
82475;SDS011;72099;43.176;76.872;2024-02-28T15:27:03;86.80;;;35.78;;
82475;SDS011;72099;43.176;76.872;2024-02-28T15:30:04;89.80;;;34.78;;
82475;SDS011;72099;43.176;76.872;2024-02-28T15:33:07;89.22;;;36.08;;
82475;SDS011;72099;43.176;76.872;2024-02-28T15:36:08;89.13;;;33.47;;
82475;SDS011;72099;43.176;76.872;2024-02-28T15:39:09;75.65;;;31.02;;
82475;SDS011;72099;43.176;76.872;2024-02-28T15:42:13;74.22;;;30.92;;
82475;SDS011;72099;43.176;76.872;2024-02-28T15:45:14;85.05;;;32.63;;
82475;SDS011;72099;43.176;76.872;2024-02-28T15:48:18;74.38;;;31.55;;
82475;SDS011;72099;43.176;76.872;2024-02-28T15:51:19;83.93;;;30.67;;
82475;SDS011;72099;43.176;76.872;2024-02-28T15:54:19;90.90;;;32.50;;
82475;SDS011;72099;43.176;76.872;2024-02-28T15:57:21;75.60;;;28.80;;
82475;SDS011;72099;43.176;76.872;2024-02-28T16:00:21;81.35;;;30.95;;
82475;SDS011;72099;43.176;76.872;2024-02-28T16:03:22;80.57;;;32.63;;
82475;SDS011;72099;43.176;76.872;2024-02-28T16:06:23;81.22;;;31.90;;
82475;SDS011;72099;43.176;76.872;2024-02-28T16:09:25;79.45;;;30.13;;
82475;SDS011;72099;43.176;76.872;2024-02-28T16:12:26;83.50;;;34.80;;
82475;SDS011;72099;43.176;76.872;2024-02-28T16:15:27;72.53;;;29.70;;
82475;SDS011;72099;43.176;76.872;2024-02-28T16:18:28;73.78;;;30.25;;
82475;SDS011;72099;43.176;76.872;2024-02-28T16:21:29;76.40;;;29.38;;
82475;SDS011;72099;43.176;76.872;2024-02-28T16:30:32;64.55;;;25.85;;
82475;SDS011;72099;43.176;76.872;2024-02-28T16:33:33;62.38;;;25.00;;
82475;SDS011;72099;43.176;76.872;2024-02-28T16:36:34;76.05;;;30.10;;
82475;SDS011;72099;43.176;76.872;2024-02-28T16:39:35;87.45;;;29.63;;
82475;SDS011;72099;43.176;76.872;2024-02-28T16:42:36;73.03;;;25.30;;
82475;SDS011;72099;43.176;76.872;2024-02-28T16:45:37;68.28;;;25.05;;
82475;SDS011;72099;43.176;76.872;2024-02-28T16:48:38;70.93;;;26.67;;
82475;SDS011;72099;43.176;76.872;2024-02-28T16:51:39;66.40;;;30.00;;
82475;SDS011;72099;43.176;76.872;2024-02-28T16:54:40;75.88;;;31.30;;
82475;SDS011;72099;43.176;76.872;2024-02-28T16:57:41;81.40;;;30.55;;
82475;SDS011;72099;43.176;76.872;2024-02-28T17:04:07;65.85;;;25.33;;
82475;SDS011;72099;43.176;76.872;2024-02-28T17:07:08;63.90;;;23.10;;
82475;SDS011;72099;43.176;76.872;2024-02-28T17:10:09;80.57;;;27.52;;
82475;SDS011;72099;43.176;76.872;2024-02-28T17:13:11;56.55;;;21.40;;
82475;SDS011;72099;43.176;76.872;2024-02-28T17:16:12;45.60;;;16.33;;
82475;SDS011;72099;43.176;76.872;2024-02-28T17:19:15;51.63;;;19.77;;
82475;SDS011;72099;43.176;76.872;2024-02-28T17:22:16;53.50;;;20.10;;
82475;SDS011;72099;43.176;76.872;2024-02-28T17:25:17;47.92;;;19.77;;
82475;SDS011;72099;43.176;76.872;2024-02-28T17:28:18;48.67;;;20.63;;
82475;SDS011;72099;43.176;76.872;2024-02-28T17:31:20;53.47;;;18.92;;
82475;SDS011;72099;43.176;76.872;2024-02-28T17:34:20;49.08;;;21.58;;
82475;SDS011;72099;43.176;76.872;2024-02-28T17:37:21;45.75;;;17.02;;
82475;SDS011;72099;43.176;76.872;2024-02-28T17:40:23;55.05;;;20.08;;
82475;SDS011;72099;43.176;76.872;2024-02-28T17:43:24;49.70;;;19.88;;
82475;SDS011;72099;43.176;76.872;2024-02-28T17:46:25;42.80;;;16.70;;
82475;SDS011;72099;43.176;76.872;2024-02-28T17:49:26;46.50;;;16.90;;
82475;SDS011;72099;43.176;76.872;2024-02-28T17:52:27;60.08;;;23.38;;
82475;SDS011;72099;43.176;76.872;2024-02-28T17:55:27;57.95;;;22.33;;
82475;SDS011;72099;43.176;76.872;2024-02-28T17:58:29;61.35;;;24.35;;
82475;SDS011;72099;43.176;76.872;2024-02-28T18:01:30;65.53;;;24.17;;
82475;SDS011;72099;43.176;76.872;2024-02-28T18:04:31;70.05;;;26.15;;
82475;SDS011;72099;43.176;76.872;2024-02-28T18:07:32;66.93;;;25.13;;